sensor_id;sensor_type;location;lat;lon;timestamp;P1;durP1;ratioP1;P2;durP2;ratioP2
71814;SDS011;59659;41.520;23.794;2022-07-29T00:00:11;8.03;;;4.20;;
71814;SDS011;59659;41.520;23.794;2022-07-29T00:01:22;7.70;;;3.73;;
71814;SDS011;59659;41.520;23.794;2022-07-29T00:02:34;7.00;;;3.53;;
71814;SDS011;59659;41.520;23.794;2022-07-29T00:03:46;6.53;;;3.77;;
71814;SDS011;59659;41.520;23.794;2022-07-29T00:04:57;6.10;;;3.43;;
71814;SDS011;59659;41.520;23.794;2022-07-29T00:06:09;5.07;;;3.33;;
71814;SDS011;59659;41.520;23.794;2022-07-29T00:18:00;6.07;;;3.57;;
71814;SDS011;59659;41.520;23.794;2022-07-29T00:19:11;5.47;;;3.50;;
71814;SDS011;59659;41.520;23.794;2022-07-29T00:20:23;8.23;;;3.67;;
71814;SDS011;59659;41.520;23.794;2022-07-29T00:21:35;6.60;;;3.23;;
71814;SDS011;59659;41.520;23.794;2022-07-29T00:22:46;7.20;;;3.33;;
71814;SDS011;59659;41.520;23.794;2022-07-29T00:23:58;10.43;;;4.13;;
71814;SDS011;59659;41.520;23.794;2022-07-29T00:25:09;6.10;;;3.83;;
71814;SDS011;59659;41.520;23.794;2022-07-29T00:26:21;4.63;;;3.33;;
71814;SDS011;59659;41.520;23.794;2022-07-29T00:27:32;6.70;;;3.20;;
71814;SDS011;59659;41.520;23.794;2022-07-29T00:28:44;5.60;;;3.20;;
71814;SDS011;59659;41.520;23.794;2022-07-29T00:29:55;6.63;;;4.40;;
71814;SDS011;59659;41.520;23.794;2022-07-29T00:31:07;5.57;;;3.50;;
71814;SDS011;59659;41.520;23.794;2022-07-29T00:32:19;7.37;;;4.37;;
71814;SDS011;59659;41.520;23.794;2022-07-29T00:33:30;7.73;;;4.07;;
71814;SDS011;59659;41.520;23.794;2022-07-29T00:34:42;6.73;;;3.97;;
71814;SDS011;59659;41.520;23.794;2022-07-29T00:36:12;7.73;;;3.93;;
71814;SDS011;59659;41.520;23.794;2022-07-29T00:37:23;6.43;;;3.93;;
71814;SDS011;59659;41.520;23.794;2022-07-29T00:38:35;5.53;;;3.90;;
71814;SDS011;59659;41.520;23.794;2022-07-29T00:39:46;6.63;;;3.60;;
71814;SDS011;59659;41.520;23.794;2022-07-29T00:40:58;7.43;;;4.17;;
71814;SDS011;59659;41.520;23.794;2022-07-29T00:42:09;6.20;;;4.27;;
71814;SDS011;59659;41.520;23.794;2022-07-29T00:43:21;8.83;;;4.67;;
71814;SDS011;59659;41.520;23.794;2022-07-29T00:44:36;7.57;;;4.57;;
71814;SDS011;59659;41.520;23.794;2022-07-29T00:45:48;5.20;;;3.50;;
71814;SDS011;59659;41.520;23.794;2022-07-29T00:46:59;6.67;;;3.63;;
71814;SDS011;59659;41.520;23.794;2022-07-29T00:48:11;7.07;;;3.63;;
71814;SDS011;59659;41.520;23.794;2022-07-29T00:49:22;7.80;;;4.30;;
71814;SDS011;59659;41.520;23.794;2022-07-29T00:50:34;5.37;;;3.90;;
71814;SDS011;59659;41.520;23.794;2022-07-29T00:51:46;12.47;;;3.97;;
71814;SDS011;59659;41.520;23.794;2022-07-29T00:52:58;6.40;;;3.73;;
71814;SDS011;59659;41.520;23.794;2022-07-29T00:54:10;5.83;;;3.90;;
71814;SDS011;59659;41.520;23.794;2022-07-29T00:55:22;6.23;;;4.07;;
71814;SDS011;59659;41.520;23.794;2022-07-29T00:56:34;8.23;;;3.47;;
71814;SDS011;59659;41.520;23.794;2022-07-29T00:57:45;8.20;;;4.57;;
71814;SDS011;59659;41.520;23.794;2022-07-29T00:58:57;5.47;;;3.60;;
71814;SDS011;59659;41.520;23.794;2022-07-29T01:00:10;5.83;;;3.87;;
71814;SDS011;59659;41.520;23.794;2022-07-29T01:01:22;7.60;;;4.27;;
71814;SDS011;59659;41.520;23.794;2022-07-29T01:02:34;9.10;;;4.10;;
71814;SDS011;59659;41.520;23.794;2022-07-29T01:03:46;5.63;;;3.87;;
71814;SDS011;59659;41.520;23.794;2022-07-29T01:04:57;5.83;;;3.87;;
71814;SDS011;59659;41.520;23.794;2022-07-29T01:06:09;6.87;;;3.87;;
71814;SDS011;59659;41.520;23.794;2022-07-29T01:07:20;6.33;;;3.40;;
71814;SDS011;59659;41.520;23.794;2022-07-29T01:08:32;6.43;;;4.37;;
71814;SDS011;59659;41.520;23.794;2022-07-29T01:09:44;6.70;;;4.70;;
71814;SDS011;59659;41.520;23.794;2022-07-29T01:10:57;7.57;;;4.00;;
71814;SDS011;59659;41.520;23.794;2022-07-29T01:12:09;6.47;;;3.70;;
71814;SDS011;59659;41.520;23.794;2022-07-29T01:13:21;5.50;;;4.07;;
71814;SDS011;59659;41.520;23.794;2022-07-29T01:14:33;7.70;;;4.73;;
71814;SDS011;59659;41.520;23.794;2022-07-29T01:15:47;7.50;;;4.83;;
71814;SDS011;59659;41.520;23.794;2022-07-29T01:17:06;7.13;;;3.87;;
71814;SDS011;59659;41.520;23.794;2022-07-29T01:22:19;9.47;;;4.33;;
71814;SDS011;59659;41.520;23.794;2022-07-29T01:25:17;6.90;;;4.30;;
71814;SDS011;59659;41.520;23.794;2022-07-29T01:27:51;6.87;;;4.07;;
71814;SDS011;59659;41.520;23.794;2022-07-29T01:29:11;6.90;;;4.67;;
71814;SDS011;59659;41.520;23.794;2022-07-29T01:30:25;6.70;;;4.33;;
71814;SDS011;59659;41.520;23.794;2022-07-29T01:33:13;6.83;;;3.63;;
71814;SDS011;59659;41.520;23.794;2022-07-29T01:34:55;6.70;;;4.17;;
71814;SDS011;59659;41.520;23.794;2022-07-29T01:36:10;7.33;;;3.83;;
71814;SDS011;59659;41.520;23.794;2022-07-29T01:37:26;8.63;;;4.13;;
71814;SDS011;59659;41.520;23.794;2022-07-29T01:38:39;5.87;;;3.90;;
71814;SDS011;59659;41.520;23.794;2022-07-29T01:39:54;7.37;;;3.97;;
71814;SDS011;59659;41.520;23.794;2022-07-29T01:41:08;5.87;;;3.97;;
71814;SDS011;59659;41.520;23.794;2022-07-29T01:43:59;7.10;;;4.10;;
71814;SDS011;59659;41.520;23.794;2022-07-29T01:45:14;9.27;;;3.87;;
71814;SDS011;59659;41.520;23.794;2022-07-29T01:46:34;8.13;;;4.43;;
71814;SDS011;59659;41.520;23.794;2022-07-29T01:47:54;9.30;;;4.70;;
71814;SDS011;59659;41.520;23.794;2022-07-29T01:50:23;6.67;;;3.90;;
71814;SDS011;59659;41.520;23.794;2022-07-29T01:53:03;7.40;;;4.20;;
71814;SDS011;59659;41.520;23.794;2022-07-29T01:55:57;6.93;;;3.90;;
71814;SDS011;59659;41.520;23.794;2022-07-29T01:57:12;9.50;;;4.17;;
71814;SDS011;59659;41.520;23.794;2022-07-29T01:58:24;8.57;;;5.10;;
71814;SDS011;59659;41.520;23.794;2022-07-29T01:59:36;6.70;;;4.47;;
71814;SDS011;59659;41.520;23.794;2022-07-29T02:00:48;7.37;;;4.33;;
71814;SDS011;59659;41.520;23.794;2022-07-29T02:02:01;8.73;;;4.63;;
71814;SDS011;59659;41.520;23.794;2022-07-29T02:03:13;8.20;;;3.93;;
71814;SDS011;59659;41.520;23.794;2022-07-29T02:04:26;7.27;;;3.90;;
71814;SDS011;59659;41.520;23.794;2022-07-29T02:05:41;8.80;;;4.40;;
71814;SDS011;59659;41.520;23.794;2022-07-29T02:06:54;9.70;;;5.13;;
71814;SDS011;59659;41.520;23.794;2022-07-29T02:08:06;7.23;;;3.77;;
71814;SDS011;59659;41.520;23.794;2022-07-29T02:09:17;7.13;;;3.47;;
71814;SDS011;59659;41.520;23.794;2022-07-29T02:10:31;9.03;;;4.83;;
71814;SDS011;59659;41.520;23.794;2022-07-29T02:11:47;7.37;;;4.43;;
71814;SDS011;59659;41.520;23.794;2022-07-29T02:12:59;6.73;;;3.93;;
71814;SDS011;59659;41.520;23.794;2022-07-29T02:14:12;7.87;;;3.83;;
71814;SDS011;59659;41.520;23.794;2022-07-29T02:15:26;7.67;;;4.27;;
71814;SDS011;59659;41.520;23.794;2022-07-29T02:16:38;9.43;;;4.13;;
71814;SDS011;59659;41.520;23.794;2022-07-29T02:17:54;7.83;;;4.20;;
71814;SDS011;59659;41.520;23.794;2022-07-29T02:19:06;6.60;;;3.77;;
71814;SDS011;59659;41.520;23.794;2022-07-29T02:20:20;6.37;;;3.97;;
71814;SDS011;59659;41.520;23.794;2022-07-29T02:21:33;7.87;;;4.67;;
71814;SDS011;59659;41.520;23.794;2022-07-29T02:22:45;7.47;;;5.27;;
71814;SDS011;59659;41.520;23.794;2022-07-29T02:23:58;7.87;;;3.90;;
71814;SDS011;59659;41.520;23.794;2022-07-29T02:25:11;6.43;;;4.37;;
71814;SDS011;59659;41.520;23.794;2022-07-29T02:26:24;10.20;;;3.83;;
71814;SDS011;59659;41.520;23.794;2022-07-29T02:27:37;6.77;;;4.43;;
71814;SDS011;59659;41.520;23.794;2022-07-29T02:28:49;8.13;;;4.20;;
71814;SDS011;59659;41.520;23.794;2022-07-29T02:30:03;6.83;;;4.73;;
71814;SDS011;59659;41.520;23.794;2022-07-29T02:31:14;7.60;;;4.40;;
71814;SDS011;59659;41.520;23.794;2022-07-29T02:32:28;8.10;;;5.10;;
71814;SDS011;59659;41.520;23.794;2022-07-29T02:33:40;7.03;;;4.33;;
71814;SDS011;59659;41.520;23.794;2022-07-29T02:34:53;9.20;;;4.70;;
71814;SDS011;59659;41.520;23.794;2022-07-29T02:36:05;9.90;;;4.80;;
71814;SDS011;59659;41.520;23.794;2022-07-29T02:37:16;7.03;;;4.17;;
71814;SDS011;59659;41.520;23.794;2022-07-29T02:38:29;8.67;;;4.23;;
71814;SDS011;59659;41.520;23.794;2022-07-29T02:40:00;9.13;;;4.77;;
71814;SDS011;59659;41.520;23.794;2022-07-29T02:41:14;9.17;;;5.17;;
71814;SDS011;59659;41.520;23.794;2022-07-29T02:42:26;8.60;;;4.80;;
71814;SDS011;59659;41.520;23.794;2022-07-29T02:43:39;6.93;;;4.83;;
71814;SDS011;59659;41.520;23.794;2022-07-29T02:44:51;6.10;;;4.60;;
71814;SDS011;59659;41.520;23.794;2022-07-29T02:46:04;8.37;;;4.80;;
71814;SDS011;59659;41.520;23.794;2022-07-29T02:47:33;8.43;;;5.00;;
71814;SDS011;59659;41.520;23.794;2022-07-29T02:48:55;8.00;;;4.23;;
71814;SDS011;59659;41.520;23.794;2022-07-29T02:50:12;6.87;;;4.60;;
71814;SDS011;59659;41.520;23.794;2022-07-29T02:51:27;7.37;;;4.57;;
71814;SDS011;59659;41.520;23.794;2022-07-29T02:52:58;7.47;;;4.27;;
71814;SDS011;59659;41.520;23.794;2022-07-29T02:54:55;7.20;;;4.50;;
71814;SDS011;59659;41.520;23.794;2022-07-29T02:55:49;6.53;;;4.27;;
71814;SDS011;59659;41.520;23.794;2022-07-29T02:57:03;6.83;;;4.53;;
71814;SDS011;59659;41.520;23.794;2022-07-29T02:58:27;10.17;;;4.90;;
71814;SDS011;59659;41.520;23.794;2022-07-29T02:59:40;6.90;;;5.00;;
71814;SDS011;59659;41.520;23.794;2022-07-29T03:00:53;9.70;;;5.90;;
71814;SDS011;59659;41.520;23.794;2022-07-29T03:02:06;9.20;;;5.30;;
71814;SDS011;59659;41.520;23.794;2022-07-29T03:03:19;7.77;;;5.27;;
71814;SDS011;59659;41.520;23.794;2022-07-29T03:04:32;7.43;;;4.70;;
71814;SDS011;59659;41.520;23.794;2022-07-29T03:05:45;7.77;;;4.60;;
71814;SDS011;59659;41.520;23.794;2022-07-29T03:06:58;9.10;;;5.47;;
71814;SDS011;59659;41.520;23.794;2022-07-29T03:08:10;8.67;;;5.07;;
71814;SDS011;59659;41.520;23.794;2022-07-29T03:09:22;7.67;;;4.80;;
71814;SDS011;59659;41.520;23.794;2022-07-29T03:10:34;6.80;;;4.27;;
71814;SDS011;59659;41.520;23.794;2022-07-29T03:11:45;6.97;;;4.93;;
71814;SDS011;59659;41.520;23.794;2022-07-29T03:13:01;7.97;;;5.13;;
71814;SDS011;59659;41.520;23.794;2022-07-29T03:14:12;7.23;;;4.37;;
71814;SDS011;59659;41.520;23.794;2022-07-29T03:15:25;10.00;;;5.70;;
71814;SDS011;59659;41.520;23.794;2022-07-29T03:16:37;10.10;;;5.27;;
71814;SDS011;59659;41.520;23.794;2022-07-29T03:17:51;6.63;;;4.70;;
71814;SDS011;59659;41.520;23.794;2022-07-29T03:19:03;8.07;;;5.77;;
71814;SDS011;59659;41.520;23.794;2022-07-29T03:20:15;8.20;;;4.60;;
71814;SDS011;59659;41.520;23.794;2022-07-29T03:21:27;7.87;;;4.87;;
71814;SDS011;59659;41.520;23.794;2022-07-29T03:22:40;8.87;;;5.40;;
71814;SDS011;59659;41.520;23.794;2022-07-29T03:23:54;9.10;;;4.97;;
71814;SDS011;59659;41.520;23.794;2022-07-29T03:25:09;7.83;;;4.80;;
71814;SDS011;59659;41.520;23.794;2022-07-29T03:26:21;7.73;;;5.03;;
71814;SDS011;59659;41.520;23.794;2022-07-29T03:27:33;7.73;;;4.87;;
71814;SDS011;59659;41.520;23.794;2022-07-29T03:28:45;8.13;;;4.53;;
71814;SDS011;59659;41.520;23.794;2022-07-29T03:29:57;8.40;;;5.30;;
71814;SDS011;59659;41.520;23.794;2022-07-29T03:31:08;10.53;;;4.57;;
71814;SDS011;59659;41.520;23.794;2022-07-29T03:32:20;8.80;;;5.27;;
71814;SDS011;59659;41.520;23.794;2022-07-29T03:33:35;6.77;;;4.93;;
71814;SDS011;59659;41.520;23.794;2022-07-29T03:34:46;10.50;;;5.33;;
71814;SDS011;59659;41.520;23.794;2022-07-29T03:35:58;7.80;;;4.77;;
71814;SDS011;59659;41.520;23.794;2022-07-29T03:37:10;9.57;;;5.37;;
71814;SDS011;59659;41.520;23.794;2022-07-29T03:38:23;6.90;;;4.80;;
71814;SDS011;59659;41.520;23.794;2022-07-29T03:39:38;9.10;;;5.93;;
71814;SDS011;59659;41.520;23.794;2022-07-29T03:40:54;12.40;;;5.30;;
71814;SDS011;59659;41.520;23.794;2022-07-29T03:42:07;8.47;;;5.07;;
71814;SDS011;59659;41.520;23.794;2022-07-29T03:43:19;10.80;;;5.37;;
71814;SDS011;59659;41.520;23.794;2022-07-29T03:44:31;10.47;;;6.13;;
71814;SDS011;59659;41.520;23.794;2022-07-29T03:45:44;9.00;;;5.80;;
71814;SDS011;59659;41.520;23.794;2022-07-29T03:46:57;7.40;;;4.83;;
71814;SDS011;59659;41.520;23.794;2022-07-29T03:48:12;8.67;;;5.17;;
71814;SDS011;59659;41.520;23.794;2022-07-29T03:49:24;8.40;;;5.50;;
71814;SDS011;59659;41.520;23.794;2022-07-29T03:50:37;8.37;;;4.50;;
71814;SDS011;59659;41.520;23.794;2022-07-29T03:51:49;9.63;;;5.60;;
71814;SDS011;59659;41.520;23.794;2022-07-29T03:53:01;9.00;;;4.63;;
71814;SDS011;59659;41.520;23.794;2022-07-29T03:54:13;8.87;;;5.57;;
71814;SDS011;59659;41.520;23.794;2022-07-29T03:55:25;8.60;;;5.90;;
71814;SDS011;59659;41.520;23.794;2022-07-29T03:56:39;7.90;;;5.50;;
71814;SDS011;59659;41.520;23.794;2022-07-29T03:57:51;8.27;;;5.70;;
71814;SDS011;59659;41.520;23.794;2022-07-29T03:59:03;9.50;;;5.53;;
71814;SDS011;59659;41.520;23.794;2022-07-29T04:00:15;19.53;;;5.67;;
71814;SDS011;59659;41.520;23.794;2022-07-29T04:01:27;8.17;;;5.73;;
71814;SDS011;59659;41.520;23.794;2022-07-29T04:02:39;10.30;;;5.60;;
71814;SDS011;59659;41.520;23.794;2022-07-29T04:03:51;10.03;;;5.30;;
71814;SDS011;59659;41.520;23.794;2022-07-29T04:05:03;9.50;;;5.43;;
71814;SDS011;59659;41.520;23.794;2022-07-29T04:06:14;11.93;;;6.07;;
71814;SDS011;59659;41.520;23.794;2022-07-29T04:07:26;11.27;;;6.00;;
71814;SDS011;59659;41.520;23.794;2022-07-29T04:08:37;15.90;;;6.87;;
71814;SDS011;59659;41.520;23.794;2022-07-29T04:09:49;11.37;;;6.07;;
71814;SDS011;59659;41.520;23.794;2022-07-29T04:11:01;13.93;;;6.17;;
71814;SDS011;59659;41.520;23.794;2022-07-29T04:12:13;9.43;;;5.50;;
71814;SDS011;59659;41.520;23.794;2022-07-29T04:13:24;10.87;;;6.53;;
71814;SDS011;59659;41.520;23.794;2022-07-29T04:14:36;9.30;;;5.93;;
71814;SDS011;59659;41.520;23.794;2022-07-29T04:15:47;9.60;;;5.40;;
71814;SDS011;59659;41.520;23.794;2022-07-29T04:16:59;10.20;;;6.27;;
71814;SDS011;59659;41.520;23.794;2022-07-29T04:18:11;11.60;;;6.33;;
71814;SDS011;59659;41.520;23.794;2022-07-29T04:19:22;8.93;;;4.97;;
71814;SDS011;59659;41.520;23.794;2022-07-29T04:20:34;11.87;;;6.23;;
71814;SDS011;59659;41.520;23.794;2022-07-29T04:21:45;9.87;;;6.27;;
71814;SDS011;59659;41.520;23.794;2022-07-29T04:22:57;9.83;;;6.53;;
71814;SDS011;59659;41.520;23.794;2022-07-29T04:24:09;11.27;;;6.53;;
71814;SDS011;59659;41.520;23.794;2022-07-29T04:25:20;12.90;;;6.07;;
71814;SDS011;59659;41.520;23.794;2022-07-29T04:26:32;11.83;;;6.50;;
71814;SDS011;59659;41.520;23.794;2022-07-29T04:27:43;9.23;;;5.83;;
71814;SDS011;59659;41.520;23.794;2022-07-29T04:29:14;11.73;;;5.73;;
71814;SDS011;59659;41.520;23.794;2022-07-29T04:30:26;10.00;;;6.10;;
71814;SDS011;59659;41.520;23.794;2022-07-29T04:31:37;9.47;;;5.93;;
71814;SDS011;59659;41.520;23.794;2022-07-29T04:32:49;10.90;;;6.87;;
71814;SDS011;59659;41.520;23.794;2022-07-29T04:34:00;12.73;;;7.07;;
71814;SDS011;59659;41.520;23.794;2022-07-29T04:35:12;8.67;;;5.63;;
71814;SDS011;59659;41.520;23.794;2022-07-29T04:36:23;12.43;;;6.23;;
71814;SDS011;59659;41.520;23.794;2022-07-29T04:37:39;10.43;;;6.07;;
71814;SDS011;59659;41.520;23.794;2022-07-29T04:38:51;12.17;;;5.93;;
71814;SDS011;59659;41.520;23.794;2022-07-29T04:40:03;10.03;;;5.90;;
71814;SDS011;59659;41.520;23.794;2022-07-29T04:41:14;13.40;;;7.53;;
71814;SDS011;59659;41.520;23.794;2022-07-29T04:42:30;9.53;;;5.67;;
71814;SDS011;59659;41.520;23.794;2022-07-29T04:43:42;8.33;;;5.40;;
71814;SDS011;59659;41.520;23.794;2022-07-29T04:44:54;10.63;;;6.13;;
71814;SDS011;59659;41.520;23.794;2022-07-29T04:46:06;7.97;;;5.50;;
71814;SDS011;59659;41.520;23.794;2022-07-29T04:47:18;8.40;;;5.53;;
71814;SDS011;59659;41.520;23.794;2022-07-29T04:48:29;10.37;;;6.33;;
71814;SDS011;59659;41.520;23.794;2022-07-29T04:49:41;13.63;;;6.47;;
71814;SDS011;59659;41.520;23.794;2022-07-29T04:50:52;10.17;;;6.70;;
71814;SDS011;59659;41.520;23.794;2022-07-29T04:52:04;11.07;;;5.93;;
71814;SDS011;59659;41.520;23.794;2022-07-29T04:53:15;9.80;;;5.77;;
71814;SDS011;59659;41.520;23.794;2022-07-29T04:54:27;11.00;;;5.97;;
71814;SDS011;59659;41.520;23.794;2022-07-29T04:55:38;11.57;;;5.93;;
71814;SDS011;59659;41.520;23.794;2022-07-29T04:56:50;10.53;;;6.47;;
71814;SDS011;59659;41.520;23.794;2022-07-29T04:58:01;10.93;;;6.30;;
71814;SDS011;59659;41.520;23.794;2022-07-29T04:59:13;11.13;;;6.33;;
71814;SDS011;59659;41.520;23.794;2022-07-29T05:00:25;11.23;;;7.03;;
71814;SDS011;59659;41.520;23.794;2022-07-29T05:01:43;11.00;;;6.20;;
71814;SDS011;59659;41.520;23.794;2022-07-29T05:02:55;10.27;;;6.37;;
71814;SDS011;59659;41.520;23.794;2022-07-29T05:04:06;11.07;;;6.60;;
71814;SDS011;59659;41.520;23.794;2022-07-29T05:05:18;10.60;;;6.50;;
71814;SDS011;59659;41.520;23.794;2022-07-29T05:06:29;14.47;;;7.30;;
71814;SDS011;59659;41.520;23.794;2022-07-29T05:07:41;11.80;;;6.57;;
71814;SDS011;59659;41.520;23.794;2022-07-29T05:08:55;11.23;;;6.50;;
71814;SDS011;59659;41.520;23.794;2022-07-29T05:10:07;9.40;;;6.33;;
71814;SDS011;59659;41.520;23.794;2022-07-29T05:28:55;10.53;;;7.00;;
71814;SDS011;59659;41.520;23.794;2022-07-29T05:30:07;11.53;;;7.40;;
71814;SDS011;59659;41.520;23.794;2022-07-29T05:31:19;10.03;;;7.10;;
71814;SDS011;59659;41.520;23.794;2022-07-29T05:32:30;11.13;;;7.43;;
71814;SDS011;59659;41.520;23.794;2022-07-29T05:33:43;9.97;;;7.03;;
71814;SDS011;59659;41.520;23.794;2022-07-29T05:34:54;11.20;;;6.93;;
71814;SDS011;59659;41.520;23.794;2022-07-29T05:36:06;10.87;;;7.30;;
71814;SDS011;59659;41.520;23.794;2022-07-29T05:37:19;15.73;;;8.27;;
71814;SDS011;59659;41.520;23.794;2022-07-29T05:38:30;15.07;;;8.93;;
71814;SDS011;59659;41.520;23.794;2022-07-29T05:39:42;19.97;;;11.63;;
71814;SDS011;59659;41.520;23.794;2022-07-29T05:40:59;30.07;;;15.73;;
71814;SDS011;59659;41.520;23.794;2022-07-29T05:42:11;34.67;;;15.23;;
71814;SDS011;59659;41.520;23.794;2022-07-29T05:43:22;31.10;;;14.80;;
71814;SDS011;59659;41.520;23.794;2022-07-29T05:44:36;38.03;;;18.53;;
71814;SDS011;59659;41.520;23.794;2022-07-29T05:45:47;45.17;;;21.73;;
71814;SDS011;59659;41.520;23.794;2022-07-29T05:47:00;49.03;;;21.63;;
71814;SDS011;59659;41.520;23.794;2022-07-29T05:48:11;25.97;;;14.20;;
71814;SDS011;59659;41.520;23.794;2022-07-29T05:49:23;33.93;;;16.10;;
71814;SDS011;59659;41.520;23.794;2022-07-29T05:50:37;41.43;;;18.37;;
71814;SDS011;59659;41.520;23.794;2022-07-29T05:51:54;45.63;;;20.37;;
71814;SDS011;59659;41.520;23.794;2022-07-29T05:53:06;41.53;;;19.50;;
71814;SDS011;59659;41.520;23.794;2022-07-29T05:54:30;28.90;;;14.17;;
71814;SDS011;59659;41.520;23.794;2022-07-29T05:55:42;30.27;;;15.23;;
71814;SDS011;59659;41.520;23.794;2022-07-29T05:56:53;29.37;;;13.73;;
71814;SDS011;59659;41.520;23.794;2022-07-29T05:58:05;24.30;;;13.77;;
71814;SDS011;59659;41.520;23.794;2022-07-29T05:59:16;25.53;;;13.00;;
71814;SDS011;59659;41.520;23.794;2022-07-29T06:00:28;21.33;;;11.23;;
71814;SDS011;59659;41.520;23.794;2022-07-29T06:01:40;18.87;;;10.70;;
71814;SDS011;59659;41.520;23.794;2022-07-29T06:02:52;19.30;;;11.00;;
71814;SDS011;59659;41.520;23.794;2022-07-29T06:04:04;19.13;;;10.83;;
71814;SDS011;59659;41.520;23.794;2022-07-29T06:05:16;20.33;;;11.03;;
71814;SDS011;59659;41.520;23.794;2022-07-29T06:06:28;20.17;;;9.90;;
71814;SDS011;59659;41.520;23.794;2022-07-29T06:07:39;17.53;;;10.03;;
71814;SDS011;59659;41.520;23.794;2022-07-29T06:09:01;18.83;;;9.47;;
71814;SDS011;59659;41.520;23.794;2022-07-29T06:10:23;16.83;;;9.07;;
71814;SDS011;59659;41.520;23.794;2022-07-29T06:11:37;16.43;;;9.50;;
71814;SDS011;59659;41.520;23.794;2022-07-29T06:12:48;16.63;;;8.80;;
71814;SDS011;59659;41.520;23.794;2022-07-29T06:14:00;13.67;;;7.40;;
71814;SDS011;59659;41.520;23.794;2022-07-29T06:15:13;16.40;;;10.20;;
71814;SDS011;59659;41.520;23.794;2022-07-29T06:16:26;14.27;;;8.13;;
71814;SDS011;59659;41.520;23.794;2022-07-29T06:17:40;12.47;;;7.53;;
71814;SDS011;59659;41.520;23.794;2022-07-29T06:19:11;12.83;;;7.37;;
71814;SDS011;59659;41.520;23.794;2022-07-29T06:20:23;12.03;;;7.80;;
71814;SDS011;59659;41.520;23.794;2022-07-29T06:21:46;16.57;;;8.93;;
71814;SDS011;59659;41.520;23.794;2022-07-29T06:22:57;14.23;;;7.67;;
71814;SDS011;59659;41.520;23.794;2022-07-29T06:24:13;18.73;;;9.93;;
71814;SDS011;59659;41.520;23.794;2022-07-29T06:25:25;14.33;;;8.53;;
71814;SDS011;59659;41.520;23.794;2022-07-29T06:26:37;13.90;;;8.27;;
71814;SDS011;59659;41.520;23.794;2022-07-29T06:27:50;15.37;;;8.60;;
71814;SDS011;59659;41.520;23.794;2022-07-29T06:29:01;11.87;;;7.50;;
71814;SDS011;59659;41.520;23.794;2022-07-29T06:30:13;18.20;;;8.97;;
71814;SDS011;59659;41.520;23.794;2022-07-29T06:31:24;16.47;;;8.43;;
71814;SDS011;59659;41.520;23.794;2022-07-29T06:32:36;21.27;;;9.27;;
71814;SDS011;59659;41.520;23.794;2022-07-29T06:33:53;18.80;;;10.23;;
71814;SDS011;59659;41.520;23.794;2022-07-29T06:35:05;14.20;;;9.30;;
71814;SDS011;59659;41.520;23.794;2022-07-29T06:36:37;18.00;;;8.27;;
71814;SDS011;59659;41.520;23.794;2022-07-29T06:37:51;12.07;;;7.67;;
71814;SDS011;59659;41.520;23.794;2022-07-29T06:39:08;13.23;;;7.60;;
71814;SDS011;59659;41.520;23.794;2022-07-29T06:40:22;13.07;;;8.07;;
71814;SDS011;59659;41.520;23.794;2022-07-29T06:41:52;16.00;;;8.03;;
71814;SDS011;59659;41.520;23.794;2022-07-29T06:43:05;14.43;;;8.37;;
71814;SDS011;59659;41.520;23.794;2022-07-29T06:44:17;12.63;;;7.77;;
71814;SDS011;59659;41.520;23.794;2022-07-29T06:45:29;12.83;;;7.30;;
71814;SDS011;59659;41.520;23.794;2022-07-29T06:46:41;15.17;;;8.33;;
71814;SDS011;59659;41.520;23.794;2022-07-29T06:47:53;15.00;;;8.30;;
71814;SDS011;59659;41.520;23.794;2022-07-29T06:49:04;11.40;;;6.77;;
71814;SDS011;59659;41.520;23.794;2022-07-29T06:50:16;11.30;;;6.83;;
71814;SDS011;59659;41.520;23.794;2022-07-29T06:51:28;11.93;;;7.87;;
71814;SDS011;59659;41.520;23.794;2022-07-29T06:52:39;9.70;;;6.50;;
71814;SDS011;59659;41.520;23.794;2022-07-29T06:53:52;12.73;;;6.43;;
71814;SDS011;59659;41.520;23.794;2022-07-29T06:55:12;13.00;;;6.80;;
71814;SDS011;59659;41.520;23.794;2022-07-29T06:56:35;13.63;;;8.17;;
71814;SDS011;59659;41.520;23.794;2022-07-29T06:57:50;11.77;;;6.67;;
71814;SDS011;59659;41.520;23.794;2022-07-29T06:59:02;11.93;;;7.30;;
71814;SDS011;59659;41.520;23.794;2022-07-29T07:00:14;11.20;;;6.60;;
71814;SDS011;59659;41.520;23.794;2022-07-29T07:01:26;12.33;;;6.97;;
71814;SDS011;59659;41.520;23.794;2022-07-29T07:02:38;11.60;;;6.80;;
71814;SDS011;59659;41.520;23.794;2022-07-29T07:03:49;9.40;;;7.13;;
71814;SDS011;59659;41.520;23.794;2022-07-29T07:05:01;10.93;;;6.47;;
71814;SDS011;59659;41.520;23.794;2022-07-29T07:06:12;12.05;;;6.70;;
71814;SDS011;59659;41.520;23.794;2022-07-29T07:07:25;13.88;;;7.28;;
71814;SDS011;59659;41.520;23.794;2022-07-29T07:08:37;10.82;;;6.55;;
71814;SDS011;59659;41.520;23.794;2022-07-29T07:09:48;12.02;;;6.72;;
71814;SDS011;59659;41.520;23.794;2022-07-29T07:11:00;11.97;;;6.47;;
71814;SDS011;59659;41.520;23.794;2022-07-29T07:12:11;10.40;;;7.00;;
71814;SDS011;59659;41.520;23.794;2022-07-29T07:13:23;9.48;;;6.75;;
71814;SDS011;59659;41.520;23.794;2022-07-29T07:14:35;12.35;;;7.13;;
71814;SDS011;59659;41.520;23.794;2022-07-29T07:15:47;9.68;;;7.00;;
71814;SDS011;59659;41.520;23.794;2022-07-29T07:16:59;9.75;;;6.28;;
71814;SDS011;59659;41.520;23.794;2022-07-29T07:18:11;16.50;;;7.70;;
71814;SDS011;59659;41.520;23.794;2022-07-29T07:19:23;9.77;;;6.15;;
71814;SDS011;59659;41.520;23.794;2022-07-29T07:20:35;10.30;;;6.43;;
71814;SDS011;59659;41.520;23.794;2022-07-29T07:21:47;11.40;;;6.72;;
71814;SDS011;59659;41.520;23.794;2022-07-29T07:22:58;11.35;;;7.22;;
71814;SDS011;59659;41.520;23.794;2022-07-29T07:24:10;9.63;;;6.15;;
71814;SDS011;59659;41.520;23.794;2022-07-29T07:25:21;13.07;;;7.45;;
71814;SDS011;59659;41.520;23.794;2022-07-29T07:26:33;11.63;;;6.65;;
71814;SDS011;59659;41.520;23.794;2022-07-29T07:27:45;14.45;;;7.53;;
71814;SDS011;59659;41.520;23.794;2022-07-29T07:28:57;10.75;;;6.97;;
71814;SDS011;59659;41.520;23.794;2022-07-29T07:30:09;9.57;;;6.72;;
71814;SDS011;59659;41.520;23.794;2022-07-29T07:31:20;9.70;;;6.65;;
71814;SDS011;59659;41.520;23.794;2022-07-29T07:32:32;10.40;;;6.63;;
71814;SDS011;59659;41.520;23.794;2022-07-29T07:33:44;11.13;;;6.72;;
71814;SDS011;59659;41.520;23.794;2022-07-29T07:34:55;10.20;;;7.00;;
71814;SDS011;59659;41.520;23.794;2022-07-29T07:36:07;11.30;;;7.15;;
71814;SDS011;59659;41.520;23.794;2022-07-29T07:37:18;14.82;;;6.18;;
71814;SDS011;59659;41.520;23.794;2022-07-29T07:38:31;10.70;;;6.43;;
71814;SDS011;59659;41.520;23.794;2022-07-29T07:39:43;10.13;;;6.68;;
71814;SDS011;59659;41.520;23.794;2022-07-29T07:40:54;12.32;;;7.88;;
71814;SDS011;59659;41.520;23.794;2022-07-29T07:42:06;13.10;;;6.93;;
71814;SDS011;59659;41.520;23.794;2022-07-29T07:43:17;10.27;;;6.53;;
71814;SDS011;59659;41.520;23.794;2022-07-29T07:44:32;13.80;;;6.32;;
71814;SDS011;59659;41.520;23.794;2022-07-29T07:46:04;13.60;;;7.10;;
71814;SDS011;59659;41.520;23.794;2022-07-29T07:47:15;8.52;;;6.50;;
71814;SDS011;59659;41.520;23.794;2022-07-29T07:48:32;10.40;;;6.72;;
71814;SDS011;59659;41.520;23.794;2022-07-29T07:49:46;9.55;;;6.05;;
71814;SDS011;59659;41.520;23.794;2022-07-29T07:50:58;13.52;;;7.07;;
71814;SDS011;59659;41.520;23.794;2022-07-29T07:52:09;8.88;;;5.85;;
71814;SDS011;59659;41.520;23.794;2022-07-29T07:53:21;13.65;;;6.65;;
71814;SDS011;59659;41.520;23.794;2022-07-29T07:54:33;11.07;;;6.43;;